sensor_id;sensor_type;location;lat;lon;timestamp;P1;durP1;ratioP1;P2;durP2;ratioP2
42146;SDS011;27815;43.410;11.852;2023-02-12T06:04:27;61.15;;;45.90;;
42146;SDS011;27815;43.410;11.852;2023-02-12T06:23:04;14.07;;;6.57;;
42146;SDS011;27815;43.410;11.852;2023-02-12T07:02:08;16.23;;;8.98;;
42146;SDS011;27815;43.410;11.852;2023-02-12T07:11:59;14.45;;;7.82;;
42146;SDS011;27815;43.410;11.852;2023-02-12T07:16:15;21.98;;;10.77;;
42146;SDS011;27815;43.410;11.852;2023-02-12T07:20:37;15.77;;;8.52;;
42146;SDS011;27815;43.410;11.852;2023-02-12T07:25:19;10.90;;;6.32;;
42146;SDS011;27815;43.410;11.852;2023-02-12T07:29:45;18.17;;;9.75;;
42146;SDS011;27815;43.410;11.852;2023-02-12T07:34:08;21.42;;;11.80;;
42146;SDS011;27815;43.410;11.852;2023-02-12T07:38:29;23.42;;;13.32;;
42146;SDS011;27815;43.410;11.852;2023-02-12T07:42:53;25.30;;;14.70;;
42146;SDS011;27815;43.410;11.852;2023-02-12T07:47:14;22.50;;;12.63;;
42146;SDS011;27815;43.410;11.852;2023-02-12T07:51:32;21.25;;;11.73;;
42146;SDS011;27815;43.410;11.852;2023-02-12T07:55:54;22.23;;;12.25;;
42146;SDS011;27815;43.410;11.852;2023-02-12T07:59:58;22.98;;;12.60;;
42146;SDS011;27815;43.410;11.852;2023-02-12T08:04:05;20.80;;;14.48;;
42146;SDS011;27815;43.410;11.852;2023-02-12T08:08:16;22.25;;;14.30;;
42146;SDS011;27815;43.410;11.852;2023-02-12T08:12:33;20.58;;;12.13;;
42146;SDS011;27815;43.410;11.852;2023-02-12T08:16:50;24.10;;;15.38;;
42146;SDS011;27815;43.410;11.852;2023-02-12T08:21:10;21.70;;;14.98;;
42146;SDS011;27815;43.410;11.852;2023-02-12T08:25:29;23.90;;;15.02;;
42146;SDS011;27815;43.410;11.852;2023-02-12T08:29:41;37.58;;;20.20;;
42146;SDS011;27815;43.410;11.852;2023-02-12T08:34:00;41.20;;;19.45;;
42146;SDS011;27815;43.410;11.852;2023-02-12T08:38:14;35.88;;;20.55;;
42146;SDS011;27815;43.410;11.852;2023-02-12T08:42:30;29.55;;;17.25;;
42146;SDS011;27815;43.410;11.852;2023-02-12T08:46:49;27.85;;;16.55;;
42146;SDS011;27815;43.410;11.852;2023-02-12T08:51:08;30.55;;;16.40;;
42146;SDS011;27815;43.410;11.852;2023-02-12T08:55:16;32.13;;;18.67;;
42146;SDS011;27815;43.410;11.852;2023-02-12T08:59:33;25.67;;;16.13;;
42146;SDS011;27815;43.410;11.852;2023-02-12T09:03:50;29.55;;;18.15;;
42146;SDS011;27815;43.410;11.852;2023-02-12T09:08:07;36.20;;;17.75;;
42146;SDS011;27815;43.410;11.852;2023-02-12T09:12:26;31.15;;;18.30;;
42146;SDS011;27815;43.410;11.852;2023-02-12T09:16:35;29.52;;;18.25;;
42146;SDS011;27815;43.410;11.852;2023-02-12T09:20:59;28.40;;;17.90;;
42146;SDS011;27815;43.410;11.852;2023-02-12T09:25:27;25.20;;;17.30;;
42146;SDS011;27815;43.410;11.852;2023-02-12T09:29:37;34.03;;;20.15;;
42146;SDS011;27815;43.410;11.852;2023-02-12T09:38:20;30.27;;;15.55;;
42146;SDS011;27815;43.410;11.852;2023-02-12T09:47:00;26.33;;;16.25;;
42146;SDS011;27815;43.410;11.852;2023-02-12T09:51:28;24.80;;;15.95;;
42146;SDS011;27815;43.410;11.852;2023-02-12T09:55:36;26.05;;;15.75;;
42146;SDS011;27815;43.410;11.852;2023-02-12T09:59:57;26.10;;;16.55;;
42146;SDS011;27815;43.410;11.852;2023-02-12T10:04:21;25.80;;;16.13;;
42146;SDS011;27815;43.410;11.852;2023-02-12T10:13:38;22.73;;;15.25;;
42146;SDS011;27815;43.410;11.852;2023-02-12T10:22:47;27.60;;;17.33;;
42146;SDS011;27815;43.410;11.852;2023-02-12T10:27:37;26.17;;;15.13;;
42146;SDS011;27815;43.410;11.852;2023-02-12T10:32:11;25.05;;;14.43;;
42146;SDS011;27815;43.410;11.852;2023-02-12T10:36:55;19.88;;;13.20;;
42146;SDS011;27815;43.410;11.852;2023-02-12T10:41:19;13.93;;;8.48;;
42146;SDS011;27815;43.410;11.852;2023-02-12T10:45:40;8.85;;;6.15;;
42146;SDS011;27815;43.410;11.852;2023-02-12T10:49:59;10.70;;;5.70;;
42146;SDS011;27815;43.410;11.852;2023-02-12T10:54:32;9.35;;;5.35;;
42146;SDS011;27815;43.410;11.852;2023-02-12T10:59:44;10.73;;;6.50;;
42146;SDS011;27815;43.410;11.852;2023-02-12T11:04:24;7.32;;;4.55;;
42146;SDS011;27815;43.410;11.852;2023-02-12T11:09:17;8.80;;;5.13;;
42146;SDS011;27815;43.410;11.852;2023-02-12T11:14:04;9.65;;;5.68;;
42146;SDS011;27815;43.410;11.852;2023-02-12T11:18:24;9.30;;;5.18;;
42146;SDS011;27815;43.410;11.852;2023-02-12T11:22:48;27.83;;;13.02;;
42146;SDS011;27815;43.410;11.852;2023-02-12T11:27:24;9.55;;;6.15;;
42146;SDS011;27815;43.410;11.852;2023-02-12T11:31:59;7.65;;;5.60;;
42146;SDS011;27815;43.410;11.852;2023-02-12T11:36:19;9.75;;;6.57;;
42146;SDS011;27815;43.410;11.852;2023-02-12T11:40:44;8.88;;;5.00;;
42146;SDS011;27815;43.410;11.852;2023-02-12T11:44:50;9.30;;;5.35;;
42146;SDS011;27815;43.410;11.852;2023-02-12T11:49:12;8.10;;;5.32;;
42146;SDS011;27815;43.410;11.852;2023-02-12T11:53:39;18.23;;;15.60;;
42146;SDS011;27815;43.410;11.852;2023-02-12T11:57:45;14.50;;;9.57;;
42146;SDS011;27815;43.410;11.852;2023-02-12T12:02:23;12.48;;;7.55;;
42146;SDS011;27815;43.410;11.852;2023-02-12T12:06:47;12.17;;;8.50;;
42146;SDS011;27815;43.410;11.852;2023-02-12T12:11:22;14.23;;;8.05;;
42146;SDS011;27815;43.410;11.852;2023-02-12T12:16:07;10.73;;;6.63;;
42146;SDS011;27815;43.410;11.852;2023-02-12T12:20:52;8.95;;;5.55;;
42146;SDS011;27815;43.410;11.852;2023-02-12T12:25:03;9.52;;;6.00;;
42146;SDS011;27815;43.410;11.852;2023-02-12T12:29:46;11.15;;;5.45;;
42146;SDS011;27815;43.410;11.852;2023-02-12T13:28:37;10.60;;;5.32;;
42146;SDS011;27815;43.410;11.852;2023-02-12T23:55:36;5.80;;;2.50;;
